createdAt,value
2024-04-26T00:00:01.591Z,1.63
2024-04-26T00:01:01.470Z,2.70
2024-04-26T00:02:01.124Z,1.00
2024-04-26T00:03:01.600Z,2.00
2024-04-26T00:04:01.066Z,2.00
2024-04-26T00:05:01.450Z,2.03
2024-04-26T00:06:04.686Z,2.40
2024-04-26T00:07:01.453Z,1.50
2024-04-26T00:08:01.053Z,1.70
2024-04-26T00:09:01.407Z,1.53
2024-04-26T00:10:01.095Z,1.47
2024-04-26T00:11:03.798Z,1.23
2024-04-26T00:12:01.176Z,1.37
2024-04-26T00:13:01.076Z,1.13
2024-04-26T00:14:01.041Z,1.27
2024-04-26T00:15:01.193Z,2.17
2024-04-26T00:16:02.179Z,2.40
2024-04-26T00:17:01.059Z,1.73
2024-04-26T00:18:01.129Z,1.70
2024-04-26T00:19:01.041Z,3.03
2024-04-26T00:20:01.519Z,2.03
2024-04-26T00:21:01.510Z,2.50
2024-04-26T00:22:01.353Z,1.83
2024-04-26T00:23:01.093Z,2.07
2024-04-26T00:24:01.151Z,2.10
2024-04-26T00:25:01.047Z,2.10
2024-04-26T00:26:06.523Z,2.50
2024-04-26T00:27:01.318Z,2.73
2024-04-26T00:28:01.399Z,2.80
2024-04-26T00:29:01.960Z,2.53
2024-04-26T00:30:01.192Z,1.07
2024-04-26T00:31:01.043Z,1.63
2024-04-26T00:32:01.673Z,1.53
2024-04-26T00:33:01.427Z,2.77
2024-04-26T00:34:01.159Z,1.90
2024-04-26T00:35:01.039Z,1.73
2024-04-26T00:36:01.174Z,2.07
2024-04-26T00:37:01.075Z,2.00
2024-04-26T00:38:01.639Z,2.00
2024-04-26T00:39:01.281Z,1.90
2024-04-26T00:40:01.093Z,2.53
2024-04-26T00:41:01.582Z,2.43
2024-04-26T00:42:02.319Z,2.73
2024-04-26T00:43:01.428Z,1.47
2024-04-26T00:44:07.800Z,1.43
2024-04-26T00:45:01.125Z,1.73
2024-04-26T00:46:01.470Z,2.37
2024-04-26T00:47:01.183Z,1.77
2024-04-26T00:48:01.640Z,1.77
2024-04-26T00:49:02.134Z,2.27
2024-04-26T00:50:01.473Z,3.03
2024-04-26T00:51:02.244Z,3.00
2024-04-26T00:52:01.696Z,2.43
2024-04-26T00:53:01.860Z,2.23
2024-04-26T00:54:02.136Z,1.97
2024-04-26T00:55:02.310Z,2.33
2024-04-26T00:56:01.074Z,2.43
2024-04-26T00:57:03.810Z,2.50
2024-04-26T00:58:01.430Z,1.87
2024-04-26T00:59:02.663Z,2.23
2024-04-26T01:00:03.289Z,1.27
2024-04-26T01:01:01.788Z,2.23
2024-04-26T01:02:01.793Z,3.57
2024-04-26T01:03:01.678Z,2.43
2024-04-26T01:04:01.525Z,1.87
2024-04-26T01:05:01.413Z,2.87
2024-04-26T01:06:01.524Z,2.83
2024-04-26T01:07:01.083Z,3.27
2024-04-26T01:08:01.523Z,1.87
2024-04-26T01:09:01.197Z,2.13
2024-04-26T01:10:01.182Z,3.60
2024-04-26T01:11:01.670Z,2.80
2024-04-26T01:12:01.629Z,1.80
2024-04-26T01:13:05.431Z,2.00
2024-04-26T01:14:01.611Z,2.17
2024-04-26T01:15:01.464Z,2.40
2024-04-26T01:16:01.053Z,1.03
2024-04-26T01:17:01.047Z,2.73
2024-04-26T01:18:01.793Z,2.57
2024-04-26T01:19:01.850Z,3.37
2024-04-26T01:20:01.133Z,2.13
2024-04-26T01:21:01.456Z,1.90
2024-04-26T01:22:13.098Z,2.00
2024-04-26T01:23:01.572Z,1.87
2024-04-26T01:24:02.519Z,2.20
2024-04-26T01:25:01.028Z,1.60
2024-04-26T01:26:03.101Z,2.10
2024-04-26T01:27:01.099Z,2.30
2024-04-26T01:28:01.093Z,2.53
2024-04-26T01:29:01.548Z,2.03
2024-04-26T01:30:01.446Z,4.60
2024-04-26T01:31:01.874Z,2.00
2024-04-26T01:32:01.063Z,2.80
2024-04-26T01:33:01.426Z,2.80
2024-04-26T01:34:01.376Z,1.90
2024-04-26T01:35:01.444Z,2.50
2024-04-26T01:36:01.648Z,1.60
2024-04-26T01:37:01.040Z,3.63
2024-04-26T01:38:01.375Z,2.90
2024-04-26T01:39:01.472Z,3.73
2024-04-26T01:40:01.494Z,3.30
2024-04-26T01:41:01.039Z,2.33
2024-04-26T01:42:01.506Z,3.03
2024-04-26T01:43:01.544Z,2.37
2024-04-26T01:44:01.383Z,2.67
2024-04-26T01:45:01.668Z,2.77
2024-04-26T01:46:01.143Z,2.80
2024-04-26T01:47:01.097Z,2.57
2024-04-26T01:48:01.332Z,2.43
2024-04-26T01:49:01.081Z,2.50
2024-04-26T01:50:01.184Z,2.93
2024-04-26T01:51:01.286Z,2.03
2024-04-26T01:52:01.391Z,2.97
2024-04-26T01:53:01.338Z,3.67
2024-04-26T01:54:01.427Z,2.63
2024-04-26T01:55:01.317Z,2.57
2024-04-26T01:56:01.358Z,2.40
2024-04-26T01:57:01.177Z,2.60
2024-04-26T01:58:01.102Z,1.90
2024-04-26T01:59:01.099Z,2.73
2024-04-26T02:00:01.688Z,1.57
2024-04-26T02:01:01.070Z,2.00
2024-04-26T02:02:01.519Z,3.73
2024-04-26T02:03:01.306Z,1.63
2024-04-26T02:04:01.211Z,1.63
2024-04-26T02:05:01.789Z,3.60
2024-04-26T02:06:01.442Z,3.00
2024-04-26T02:07:01.338Z,2.37
2024-04-26T02:08:01.445Z,3.10
2024-04-26T02:09:01.237Z,3.30
2024-04-26T02:10:01.437Z,2.50
2024-04-26T02:11:01.098Z,3.00
2024-04-26T02:12:01.484Z,2.40
2024-04-26T02:13:01.421Z,2.93
2024-04-26T02:14:01.031Z,2.93
2024-04-26T02:15:01.378Z,2.50
2024-04-26T02:16:01.411Z,2.83
2024-04-26T02:17:01.272Z,3.97
2024-04-26T02:18:01.485Z,3.77
2024-04-26T02:19:01.595Z,2.93
2024-04-26T02:20:01.394Z,3.80
2024-04-26T02:21:01.080Z,3.10
2024-04-26T02:22:01.551Z,3.73
2024-04-26T02:23:01.420Z,3.00
2024-04-26T02:24:01.245Z,2.87
2024-04-26T02:25:01.089Z,2.67
2024-04-26T02:26:01.126Z,3.40
2024-04-26T02:27:01.164Z,2.97
2024-04-26T02:28:01.476Z,3.07
2024-04-26T02:29:01.019Z,3.07
2024-04-26T02:30:02.226Z,3.10
2024-04-26T02:31:01.130Z,2.17
2024-04-26T02:32:01.561Z,5.63
2024-04-26T02:33:01.208Z,4.13
2024-04-26T02:34:01.246Z,2.53
2024-04-26T02:35:01.381Z,3.70
2024-04-26T02:36:01.210Z,3.37
2024-04-26T02:37:01.044Z,2.87
2024-04-26T02:38:01.344Z,3.03
2024-04-26T02:39:01.354Z,3.47
2024-04-26T02:40:01.385Z,2.90
2024-04-26T02:41:03.287Z,2.13
2024-04-26T02:42:01.500Z,2.83
2024-04-26T02:43:01.371Z,2.90
2024-04-26T02:44:03.554Z,3.97
2024-04-26T02:45:01.236Z,3.17
2024-04-26T02:46:01.632Z,3.27
2024-04-26T02:47:01.205Z,3.33
2024-04-26T02:48:01.189Z,3.93
2024-04-26T02:49:01.487Z,1.87
2024-04-26T02:50:01.382Z,2.00
2024-04-26T02:51:01.239Z,2.57
2024-04-26T02:52:01.412Z,2.67
2024-04-26T02:53:01.381Z,3.10
2024-04-26T02:54:01.495Z,3.43
2024-04-26T02:55:01.085Z,3.37
2024-04-26T02:56:01.449Z,4.63
2024-04-26T02:57:01.157Z,3.17
2024-04-26T02:58:01.347Z,3.73
2024-04-26T02:59:01.069Z,2.47
2024-04-26T03:00:01.581Z,2.60
2024-04-26T03:01:01.425Z,3.23
2024-04-26T03:02:01.111Z,2.67
2024-04-26T03:03:01.242Z,2.83
2024-04-26T03:04:01.615Z,3.00
2024-04-26T03:05:01.097Z,3.00
2024-04-26T03:06:06.907Z,3.30
2024-04-26T03:07:01.071Z,1.57
2024-04-26T03:08:01.057Z,3.00
2024-04-26T03:09:01.135Z,2.73
2024-04-26T03:10:01.351Z,3.63
2024-04-26T03:11:01.538Z,2.00
2024-04-26T03:12:01.321Z,2.73
2024-04-26T03:13:01.045Z,2.73
2024-04-26T03:14:02.232Z,5.83
2024-04-26T03:15:02.997Z,6.40
2024-04-26T03:16:01.394Z,3.60
2024-04-26T03:17:01.444Z,2.80
2024-04-26T03:18:01.592Z,1.47
2024-04-26T03:19:01.490Z,3.03
2024-04-26T03:20:01.107Z,3.97
2024-04-26T03:21:01.066Z,2.70
2024-04-26T03:22:01.347Z,2.90
2024-04-26T03:23:01.221Z,1.87
2024-04-26T03:24:02.650Z,1.77
2024-04-26T03:25:01.431Z,3.57
2024-04-26T03:26:01.024Z,2.37
2024-04-26T03:27:01.310Z,2.50
2024-04-26T03:28:01.030Z,2.23
2024-04-26T03:29:01.069Z,3.77
2024-04-26T03:30:01.691Z,3.63
2024-04-26T03:31:01.074Z,3.20
2024-04-26T03:32:01.079Z,3.97
2024-04-26T03:33:02.761Z,3.00
2024-04-26T03:34:01.375Z,2.07
2024-04-26T03:35:01.174Z,3.17
2024-04-26T03:36:01.091Z,3.53
2024-04-26T03:37:01.384Z,2.13
2024-04-26T03:38:01.505Z,3.33
2024-04-26T03:39:01.054Z,2.53
2024-04-26T03:40:01.024Z,2.70
2024-04-26T03:41:01.040Z,2.43
2024-04-26T03:42:01.456Z,2.30
2024-04-26T03:43:01.400Z,4.17
2024-04-26T03:44:01.112Z,2.90
2024-04-26T03:45:01.503Z,3.20
2024-04-26T03:46:02.709Z,3.90
2024-04-26T03:47:01.071Z,2.70
2024-04-26T03:48:01.582Z,3.30
2024-04-26T03:49:01.549Z,2.90
2024-04-26T03:50:01.392Z,2.10
2024-04-26T03:51:01.216Z,2.60
2024-04-26T03:52:01.380Z,2.87
2024-04-26T03:53:01.052Z,1.90
2024-04-26T03:54:01.099Z,3.00
2024-04-26T03:55:01.090Z,2.97
2024-04-26T03:56:01.224Z,2.33
2024-04-26T03:57:01.501Z,2.13
2024-04-26T03:58:01.331Z,2.20
2024-04-26T03:59:01.012Z,2.97
2024-04-26T04:00:01.200Z,3.03
2024-04-26T04:01:01.033Z,3.20
2024-04-26T04:02:01.085Z,2.87
2024-04-26T04:03:01.278Z,3.47
2024-04-26T04:04:01.360Z,2.13
2024-04-26T04:05:01.218Z,2.87
2024-04-26T04:06:01.481Z,2.17
2024-04-26T04:07:01.322Z,1.80
2024-04-26T04:08:01.099Z,2.57
2024-04-26T04:09:01.441Z,2.93
2024-04-26T04:10:01.068Z,3.10
2024-04-26T04:11:01.466Z,2.17
2024-04-26T04:12:01.557Z,2.63
2024-04-26T04:13:01.162Z,2.63
2024-04-26T04:14:02.028Z,2.90
2024-04-26T04:15:01.121Z,2.93
2024-04-26T04:16:01.075Z,2.83
2024-04-26T04:17:01.097Z,2.03
2024-04-26T04:18:01.549Z,2.23
2024-04-26T04:19:01.501Z,3.60
2024-04-26T04:20:01.082Z,3.80
2024-04-26T04:21:01.105Z,2.77
2024-04-26T04:22:01.416Z,3.77
2024-04-26T04:23:01.037Z,3.93
2024-04-26T04:24:01.555Z,3.67
2024-04-26T04:25:01.088Z,4.27
2024-04-26T04:26:01.508Z,2.70
2024-04-26T04:27:01.103Z,3.80
2024-04-26T04:28:01.025Z,4.53
2024-04-26T04:29:01.270Z,4.33
2024-04-26T04:30:01.161Z,3.83
2024-04-26T04:31:01.066Z,3.90
2024-04-26T04:32:01.041Z,3.57
2024-04-26T04:33:01.381Z,3.90
2024-04-26T04:34:01.406Z,3.87
2024-04-26T04:35:01.453Z,3.77
2024-04-26T04:36:01.630Z,2.63
2024-04-26T04:37:01.071Z,3.37
2024-04-26T04:38:01.128Z,4.30
2024-04-26T04:39:01.116Z,3.13
2024-04-26T04:40:01.318Z,2.87
2024-04-26T04:41:01.043Z,2.90
2024-04-26T04:42:01.273Z,3.77
2024-04-26T04:43:01.417Z,3.67
2024-04-26T04:44:01.383Z,2.20
2024-04-26T04:45:01.168Z,3.13
2024-04-26T04:46:01.397Z,2.63
2024-04-26T04:47:01.538Z,3.30
2024-04-26T04:48:01.618Z,2.50
2024-04-26T04:49:01.324Z,2.87
2024-04-26T04:50:01.034Z,3.03
2024-04-26T04:51:01.466Z,3.53
2024-04-26T04:52:01.424Z,3.03
2024-04-26T04:53:01.326Z,3.67
2024-04-26T04:54:01.513Z,3.47
2024-04-26T04:55:01.388Z,2.47
2024-04-26T04:56:01.374Z,3.63
2024-04-26T04:57:01.706Z,3.37
2024-04-26T04:58:02.196Z,3.17
2024-04-26T04:59:01.118Z,3.23
2024-04-26T05:00:01.269Z,3.33
2024-04-26T05:01:01.439Z,3.30
2024-04-26T05:02:01.671Z,3.20
2024-04-26T05:03:01.265Z,3.23
2024-04-26T05:04:01.344Z,3.57
2024-04-26T05:05:01.672Z,2.53
2024-04-26T05:06:01.459Z,3.37
2024-04-26T05:07:01.109Z,3.33
2024-04-26T05:08:01.395Z,4.20
2024-04-26T05:09:01.447Z,4.33
2024-04-26T05:10:01.236Z,3.17
2024-04-26T05:11:01.033Z,3.10
2024-04-26T05:12:01.488Z,3.00
2024-04-26T05:13:01.693Z,3.87
2024-04-26T05:14:01.370Z,2.57
2024-04-26T05:15:01.468Z,3.13
2024-04-26T05:16:01.098Z,3.00
2024-04-26T05:17:01.037Z,3.70
2024-04-26T05:18:02.099Z,4.23
2024-04-26T05:19:01.151Z,3.73
2024-04-26T05:20:01.427Z,2.97
2024-04-26T05:21:01.178Z,3.80
2024-04-26T05:22:01.138Z,3.00
2024-04-26T05:23:01.394Z,2.57
2024-04-26T05:24:01.434Z,2.30
2024-04-26T05:25:01.092Z,3.60
2024-04-26T05:26:01.381Z,3.07
2024-04-26T05:27:01.493Z,3.43
2024-04-26T05:28:01.433Z,3.67
2024-04-26T05:29:01.026Z,3.20
2024-04-26T05:30:01.294Z,3.43
2024-04-26T05:31:01.030Z,3.37
2024-04-26T05:32:01.221Z,4.47
2024-04-26T05:33:01.688Z,2.73
2024-04-26T05:34:01.523Z,3.37
2024-04-26T05:35:01.266Z,2.73
2024-04-26T05:36:01.423Z,2.67
2024-04-26T05:37:01.020Z,3.90
2024-04-26T05:38:01.370Z,3.17
2024-04-26T05:39:01.459Z,3.07
2024-04-26T05:40:01.169Z,3.00
2024-04-26T05:41:01.384Z,3.17
2024-04-26T05:42:01.253Z,3.00
2024-04-26T05:43:01.160Z,4.57
2024-04-26T05:44:01.695Z,2.93
2024-04-26T05:45:01.105Z,3.70
2024-04-26T05:46:01.315Z,3.73
2024-04-26T05:47:01.603Z,3.93
2024-04-26T05:48:01.131Z,3.43
2024-04-26T05:49:01.879Z,4.17
2024-04-26T05:50:01.070Z,4.10
2024-04-26T05:51:01.216Z,4.17
2024-04-26T05:52:01.397Z,5.30
2024-04-26T05:53:01.415Z,5.63
2024-04-26T05:54:01.120Z,5.60
2024-04-26T05:55:01.125Z,3.77
2024-04-26T05:56:01.101Z,4.83
2024-04-26T05:57:01.715Z,4.77
2024-04-26T05:58:01.171Z,6.23
2024-04-26T05:59:01.118Z,4.30
2024-04-26T06:00:01.318Z,6.30
2024-04-26T06:01:01.434Z,6.17
2024-04-26T06:02:01.020Z,5.17
2024-04-26T06:03:01.106Z,5.73
2024-04-26T06:04:01.663Z,6.33
2024-04-26T06:05:01.465Z,4.23
2024-04-26T06:06:01.138Z,5.53
2024-04-26T06:07:01.405Z,3.93
2024-04-26T06:08:01.445Z,6.13
2024-04-26T06:09:01.142Z,4.57
2024-04-26T06:10:01.048Z,4.67
2024-04-26T06:11:01.113Z,3.03
2024-04-26T06:12:01.045Z,2.47
2024-04-26T06:13:04.750Z,4.37
2024-04-26T06:14:01.417Z,3.57
2024-04-26T06:15:02.341Z,5.30
2024-04-26T06:16:03.790Z,3.70
2024-04-26T06:17:01.070Z,3.00
2024-04-26T06:18:01.522Z,4.27
2024-04-26T06:19:01.882Z,3.23
2024-04-26T06:20:01.122Z,4.13
2024-04-26T06:21:01.478Z,3.50
2024-04-26T06:22:01.105Z,2.63
2024-04-26T06:23:01.371Z,3.23
2024-04-26T06:24:01.464Z,3.87
2024-04-26T06:25:01.443Z,5.00
2024-04-26T06:26:01.491Z,3.60
2024-04-26T06:27:01.246Z,4.23
2024-04-26T06:28:01.393Z,4.83
2024-04-26T06:29:01.089Z,5.07
2024-04-26T06:30:01.755Z,4.30
2024-04-26T06:31:01.021Z,5.27
2024-04-26T06:32:01.127Z,4.20
2024-04-26T06:33:01.388Z,4.23
2024-04-26T06:34:01.206Z,3.27
2024-04-26T06:35:01.033Z,4.57
2024-04-26T06:36:01.473Z,3.73
2024-04-26T06:37:01.128Z,4.17
2024-04-26T06:38:01.088Z,3.13
2024-04-26T06:39:01.160Z,3.43
2024-04-26T06:40:01.881Z,3.50
2024-04-26T06:41:01.568Z,4.10
2024-04-26T06:42:01.190Z,4.47
2024-04-26T06:43:01.380Z,4.37
2024-04-26T06:44:11.581Z,4.80
2024-04-26T06:45:01.213Z,3.50
2024-04-26T06:46:01.422Z,2.53
2024-04-26T06:47:01.187Z,3.63
2024-04-26T06:48:01.285Z,4.10
2024-04-26T06:49:01.420Z,2.83
2024-04-26T06:50:01.504Z,3.53
2024-04-26T06:51:01.720Z,3.23
2024-04-26T06:52:01.215Z,3.60
2024-04-26T06:53:01.392Z,5.73
2024-04-26T06:54:01.580Z,4.77
2024-04-26T06:55:01.394Z,4.13
2024-04-26T06:56:01.410Z,4.60
2024-04-26T06:57:01.536Z,3.67
2024-04-26T06:58:01.134Z,3.23
2024-04-26T06:59:01.376Z,4.57
2024-04-26T07:00:01.689Z,3.00
2024-04-26T07:01:02.509Z,4.70
2024-04-26T07:02:01.525Z,3.37
2024-04-26T07:03:01.671Z,3.33
2024-04-26T07:04:02.816Z,3.13
2024-04-26T07:05:01.458Z,3.30
2024-04-26T07:06:01.441Z,3.73
2024-04-26T07:07:01.370Z,3.53
2024-04-26T07:08:01.110Z,4.43
2024-04-26T07:09:01.051Z,3.47
2024-04-26T07:10:01.428Z,4.43
2024-04-26T07:11:01.381Z,2.47
2024-04-26T07:12:01.466Z,4.87
2024-04-26T07:13:01.145Z,3.83
2024-04-26T07:14:01.587Z,4.93
2024-04-26T07:15:01.195Z,3.70
2024-04-26T07:16:10.871Z,4.80
2024-04-26T07:17:01.027Z,3.33
2024-04-26T07:18:01.727Z,2.90
2024-04-26T07:19:01.352Z,6.20
2024-04-26T07:20:01.158Z,7.10
2024-04-26T07:21:01.096Z,6.37
2024-04-26T07:22:01.223Z,3.03
2024-04-26T07:23:03.696Z,9.07
2024-04-26T07:24:01.178Z,7.87
2024-04-26T07:25:01.185Z,9.67
2024-04-26T07:26:01.024Z,7.00
2024-04-26T07:27:01.494Z,5.20
2024-04-26T07:28:01.105Z,6.13
2024-04-26T07:29:11.284Z,6.70
2024-04-26T07:30:01.146Z,6.07
2024-04-26T07:31:01.338Z,4.80
2024-04-26T07:32:01.468Z,5.70
2024-04-26T07:33:01.545Z,5.17
2024-04-26T07:34:01.126Z,7.10
2024-04-26T07:35:01.070Z,6.43
2024-04-26T07:36:01.504Z,5.47
2024-04-26T07:37:01.035Z,5.23
2024-04-26T07:38:01.468Z,4.33
2024-04-26T07:39:01.381Z,4.20
2024-04-26T07:40:01.403Z,4.83
2024-04-26T07:41:01.600Z,3.30
2024-04-26T07:42:01.111Z,5.20
2024-04-26T07:43:01.087Z,3.70
2024-04-26T07:44:01.045Z,4.67
2024-04-26T07:45:01.543Z,4.80
2024-04-26T07:46:01.401Z,6.10
2024-04-26T07:47:01.698Z,4.23
2024-04-26T07:48:03.923Z,5.57
2024-04-26T07:49:01.297Z,4.87
2024-04-26T07:50:01.911Z,5.77
2024-04-26T07:51:01.089Z,4.43
2024-04-26T07:52:01.341Z,5.53
2024-04-26T07:53:01.038Z,5.37
2024-04-26T07:54:01.410Z,5.13
2024-04-26T07:55:04.008Z,5.10
2024-04-26T07:56:01.387Z,3.37
2024-04-26T07:57:01.126Z,4.37
2024-04-26T07:58:01.437Z,6.07
2024-04-26T07:59:01.535Z,6.23
2024-04-26T08:00:01.280Z,6.83
2024-04-26T08:01:01.109Z,6.73
2024-04-26T08:02:01.358Z,5.43
2024-04-26T08:03:01.977Z,5.90
2024-04-26T08:04:01.790Z,6.13
2024-04-26T08:05:01.268Z,5.57
2024-04-26T08:06:01.150Z,6.40
2024-04-26T08:07:01.028Z,4.07
2024-04-26T08:08:01.384Z,4.93
2024-04-26T08:09:01.406Z,6.10
2024-04-26T08:10:01.213Z,4.50
2024-04-26T08:11:01.430Z,6.70
2024-04-26T08:12:01.369Z,5.50
2024-04-26T08:13:01.048Z,4.70
2024-04-26T08:14:01.081Z,6.30
2024-04-26T08:15:01.186Z,5.37
2024-04-26T08:16:01.095Z,6.10
2024-04-26T08:17:01.106Z,4.90
2024-04-26T08:18:01.650Z,5.20
2024-04-26T08:19:01.678Z,5.47
2024-04-26T08:20:01.343Z,4.30
2024-04-26T08:21:01.084Z,7.00
2024-04-26T08:22:01.076Z,5.20
2024-04-26T08:23:01.168Z,6.40
2024-04-26T08:24:01.267Z,4.93
2024-04-26T08:25:04.678Z,5.30
2024-04-26T08:26:01.015Z,5.70
2024-04-26T08:27:01.434Z,6.83
2024-04-26T08:28:01.392Z,6.43
2024-04-26T08:29:01.085Z,6.10
2024-04-26T08:30:01.550Z,5.20
2024-04-26T08:31:01.529Z,5.77
2024-04-26T08:32:01.106Z,5.07
2024-04-26T08:33:06.508Z,5.13
2024-04-26T08:34:01.198Z,5.07
2024-04-26T08:35:01.318Z,5.13
2024-04-26T08:36:01.327Z,5.87
2024-04-26T08:37:01.311Z,6.30
2024-04-26T08:38:01.489Z,5.70
2024-04-26T08:39:01.210Z,4.70
2024-04-26T08:40:01.228Z,5.20
2024-04-26T08:41:01.480Z,6.00
2024-04-26T08:42:02.905Z,6.90
2024-04-26T08:43:02.446Z,6.33
2024-04-26T08:44:02.178Z,6.73
2024-04-26T08:45:01.246Z,7.23
2024-04-26T08:46:02.928Z,6.27
2024-04-26T08:47:02.393Z,6.47
2024-04-26T08:48:02.987Z,6.13
2024-04-26T08:49:02.040Z,4.90
2024-04-26T08:50:04.344Z,5.27
2024-04-26T08:51:04.320Z,5.70
2024-04-26T08:52:02.443Z,4.37
2024-04-26T08:53:04.651Z,6.37
2024-04-26T08:54:01.462Z,6.53
2024-04-26T08:55:01.578Z,6.77
2024-04-26T08:56:05.411Z,6.57
2024-04-26T08:57:03.442Z,4.57
2024-04-26T08:58:02.940Z,4.57
2024-04-26T08:59:01.658Z,7.40
2024-04-26T09:00:02.865Z,7.47
2024-04-26T09:01:01.507Z,7.97
2024-04-26T09:02:03.486Z,11.00
2024-04-26T09:03:01.545Z,10.20
2024-04-26T09:04:01.607Z,6.70
2024-04-26T09:05:02.470Z,4.90
2024-04-26T09:06:02.749Z,6.30
2024-04-26T09:07:01.029Z,5.63
2024-04-26T09:08:01.419Z,5.03
2024-04-26T09:09:01.204Z,5.53
2024-04-26T09:10:01.460Z,5.80
2024-04-26T09:11:01.107Z,6.33
2024-04-26T09:12:01.823Z,5.87
2024-04-26T09:13:04.918Z,6.00
2024-04-26T09:14:01.101Z,7.43
2024-04-26T09:15:01.594Z,12.87
2024-04-26T09:16:01.113Z,12.03
2024-04-26T09:17:01.101Z,7.20
2024-04-26T09:18:01.852Z,7.27
2024-04-26T09:19:01.309Z,10.67
2024-04-26T09:20:03.611Z,15.57
2024-04-26T09:21:01.213Z,10.07
2024-04-26T09:22:01.210Z,6.13
2024-04-26T09:23:01.121Z,7.37
2024-04-26T09:24:01.606Z,12.87
2024-04-26T09:25:02.229Z,8.50
2024-04-26T09:26:04.519Z,7.40
2024-04-26T09:27:01.701Z,6.83
2024-04-26T09:28:01.101Z,11.13
2024-04-26T09:29:01.498Z,9.90
2024-04-26T09:30:01.213Z,9.70
2024-04-26T09:31:01.638Z,8.60
2024-04-26T09:32:12.563Z,8.73
2024-04-26T09:33:02.448Z,9.27
2024-04-26T09:34:06.126Z,5.63
2024-04-26T09:35:02.595Z,6.33
2024-04-26T09:36:02.179Z,7.83
2024-04-26T09:37:01.685Z,8.17
2024-04-26T09:38:04.317Z,7.70
2024-04-26T09:39:02.555Z,8.17
2024-04-26T09:40:01.121Z,6.47
2024-04-26T09:41:02.294Z,5.40
2024-04-26T09:42:03.087Z,5.67
2024-04-26T09:43:02.432Z,8.90
2024-04-26T09:44:02.404Z,6.23
2024-04-26T09:45:02.417Z,10.57
2024-04-26T09:46:01.793Z,7.50
2024-04-26T09:47:01.543Z,6.20
2024-04-26T09:48:02.127Z,7.30
2024-04-26T09:49:02.526Z,8.50
2024-04-26T09:50:03.184Z,6.57
2024-04-26T09:51:03.654Z,6.73
2024-04-26T09:52:01.520Z,5.43
2024-04-26T09:53:01.398Z,6.50
2024-04-26T09:54:03.415Z,7.77
2024-04-26T09:55:02.316Z,6.03
2024-04-26T09:56:01.508Z,5.27
2024-04-26T09:57:01.470Z,5.20
2024-04-26T09:58:01.529Z,7.30
2024-04-26T09:59:01.975Z,6.97
2024-04-26T10:00:01.691Z,6.67
2024-04-26T10:01:04.187Z,5.70
2024-04-26T10:02:03.558Z,6.10
2024-04-26T10:03:06.233Z,6.17
2024-04-26T10:04:02.215Z,6.30
2024-04-26T10:05:01.094Z,5.13
2024-04-26T10:06:02.938Z,5.27
2024-04-26T10:07:01.448Z,6.17
2024-04-26T10:08:03.427Z,6.10
2024-04-26T10:09:07.721Z,5.30
2024-04-26T10:10:01.715Z,6.47
2024-04-26T10:11:06.337Z,5.83
2024-04-26T10:12:01.326Z,5.10
2024-04-26T10:13:02.160Z,5.13
2024-04-26T10:14:01.111Z,5.23
2024-04-26T10:15:06.890Z,5.83
2024-04-26T10:16:01.101Z,6.47
2024-04-26T10:17:05.699Z,6.60
2024-04-26T10:18:01.902Z,4.97
2024-04-26T10:19:01.323Z,6.03
2024-04-26T10:20:01.456Z,4.93
2024-04-26T10:21:01.995Z,6.03
2024-04-26T10:22:02.806Z,7.17
2024-04-26T10:23:03.597Z,4.80
2024-04-26T10:24:01.564Z,5.60
2024-04-26T10:25:01.134Z,4.90
2024-04-26T10:26:06.281Z,4.23
2024-04-26T10:27:01.437Z,3.93
2024-04-26T10:28:07.245Z,3.40
2024-04-26T10:29:08.697Z,3.60
2024-04-26T10:30:02.391Z,4.40
2024-04-26T10:31:01.341Z,4.23
2024-04-26T10:32:04.617Z,4.73
2024-04-26T10:33:01.610Z,3.53
2024-04-26T10:34:01.608Z,5.33
2024-04-26T10:35:01.079Z,4.87
2024-04-26T10:36:03.277Z,3.73
2024-04-26T10:37:01.113Z,4.90
2024-04-26T10:38:01.561Z,3.27
2024-04-26T10:39:01.462Z,5.73
2024-04-26T10:40:02.852Z,3.80
2024-04-26T10:41:01.493Z,5.23
2024-04-26T10:42:01.537Z,5.43
2024-04-26T10:43:01.615Z,5.07
2024-04-26T10:44:01.684Z,4.73
2024-04-26T10:45:01.590Z,4.23
2024-04-26T10:46:01.093Z,4.57
2024-04-26T10:47:01.301Z,3.60
2024-04-26T10:48:01.275Z,4.20
2024-04-26T10:49:10.040Z,3.47
2024-04-26T10:50:01.202Z,5.17
2024-04-26T10:51:03.289Z,3.47
2024-04-26T10:52:02.653Z,3.73
2024-04-26T10:53:06.127Z,2.87
2024-04-26T10:54:02.055Z,3.27
2024-04-26T10:55:01.479Z,3.53
2024-04-26T10:56:02.505Z,2.63
2024-04-26T10:57:01.471Z,3.07
2024-04-26T10:58:01.191Z,4.30
2024-04-26T10:59:01.069Z,3.03
2024-04-26T11:00:02.138Z,3.03
2024-04-26T11:01:01.122Z,3.00
2024-04-26T11:02:01.518Z,3.43
2024-04-26T11:03:07.210Z,2.93
2024-04-26T11:04:01.632Z,2.50
2024-04-26T11:05:03.700Z,2.90
2024-04-26T11:06:01.154Z,3.10
2024-04-26T11:07:11.120Z,2.27
2024-04-26T11:08:01.403Z,2.03
2024-04-26T11:09:05.272Z,2.30
2024-04-26T11:10:01.390Z,3.17
2024-04-26T11:11:06.959Z,3.03
2024-04-26T11:12:01.181Z,2.10
2024-04-26T11:13:01.407Z,2.80
2024-04-26T11:14:01.404Z,2.43
2024-04-26T11:15:01.131Z,2.67
2024-04-26T11:16:01.381Z,3.20
2024-04-26T11:17:01.060Z,2.90
2024-04-26T11:18:01.364Z,2.93
2024-04-26T11:19:01.597Z,2.37
2024-04-26T11:20:01.568Z,2.90
2024-04-26T11:21:01.437Z,3.10
2024-04-26T11:22:01.090Z,2.20
2024-04-26T11:23:01.014Z,3.47
2024-04-26T11:24:01.447Z,6.07
2024-04-26T11:25:01.374Z,6.07
2024-04-26T11:26:01.041Z,4.87
2024-04-26T11:27:01.745Z,2.70
2024-04-26T11:28:01.091Z,3.00
2024-04-26T11:29:01.702Z,4.47
2024-04-26T11:30:01.417Z,3.73
2024-04-26T11:31:01.047Z,3.27
2024-04-26T11:32:01.695Z,2.10
2024-04-26T11:33:01.262Z,4.20
2024-04-26T11:34:01.128Z,6.13
2024-04-26T11:35:01.216Z,3.97
2024-04-26T11:36:01.224Z,3.20
2024-04-26T11:37:01.023Z,2.33
2024-04-26T11:38:01.235Z,3.07
2024-04-26T11:39:01.621Z,3.00
2024-04-26T11:40:01.097Z,4.90
2024-04-26T11:41:01.323Z,3.33
2024-04-26T11:42:01.440Z,2.43
2024-04-26T11:43:01.111Z,2.73
2024-04-26T11:44:01.497Z,1.77
2024-04-26T11:45:01.462Z,3.40
2024-04-26T11:46:01.038Z,2.53
2024-04-26T11:47:01.321Z,2.10
2024-04-26T11:48:01.304Z,2.70
2024-04-26T11:49:02.124Z,2.50
2024-04-26T11:50:01.296Z,2.30
2024-04-26T11:51:01.091Z,2.90
2024-04-26T11:52:01.015Z,2.70
2024-04-26T11:53:01.084Z,3.30
2024-04-26T11:54:01.139Z,3.50
2024-04-26T11:55:01.375Z,3.00
2024-04-26T11:56:01.032Z,2.13
2024-04-26T11:57:04.864Z,4.00
2024-04-26T11:58:01.354Z,2.00
2024-04-26T11:59:01.406Z,1.70
2024-04-26T12:00:01.274Z,3.57
2024-04-26T12:01:02.511Z,4.73
2024-04-26T12:02:01.044Z,4.97
2024-04-26T12:03:02.800Z,3.80
2024-04-26T12:04:01.421Z,12.67
2024-04-26T12:05:01.399Z,6.43
2024-04-26T12:06:02.335Z,3.27
2024-04-26T12:07:01.008Z,2.33
2024-04-26T12:08:01.041Z,2.47
2024-04-26T12:09:01.414Z,2.83
2024-04-26T12:10:01.045Z,1.83
2024-04-26T12:11:01.476Z,1.87
2024-04-26T12:12:01.078Z,3.30
2024-04-26T12:13:01.470Z,2.30
2024-04-26T12:14:01.046Z,2.03
2024-04-26T12:15:01.151Z,2.80
2024-04-26T12:16:01.116Z,1.90
2024-04-26T12:17:01.159Z,1.90
2024-04-26T12:18:01.311Z,3.00
2024-04-26T12:19:01.885Z,4.07
2024-04-26T12:20:01.469Z,2.70
2024-04-26T12:21:01.181Z,1.87
2024-04-26T12:22:01.260Z,2.90
2024-04-26T12:23:01.091Z,1.67
2024-04-26T12:24:02.352Z,2.03
2024-04-26T12:25:01.417Z,1.70
2024-04-26T12:26:01.023Z,2.47
2024-04-26T12:27:01.086Z,2.33
2024-04-26T12:28:02.091Z,0.53
2024-04-26T12:29:01.018Z,2.07
2024-04-26T12:30:01.545Z,2.63
2024-04-26T12:31:01.019Z,2.00
2024-04-26T12:32:01.106Z,2.70
2024-04-26T12:33:02.011Z,1.67
2024-04-26T12:34:01.223Z,1.77
2024-04-26T12:35:01.634Z,1.07
2024-04-26T12:36:01.158Z,1.87
2024-04-26T12:37:01.022Z,0.00
2024-04-26T12:38:02.045Z,1.53
2024-04-26T12:39:01.142Z,0.87
2024-04-26T12:40:01.530Z,2.43
2024-04-26T12:41:01.351Z,1.47
2024-04-26T12:42:01.115Z,2.23
2024-04-26T12:43:01.094Z,1.63
2024-04-26T12:44:01.251Z,0.53
2024-04-26T12:45:01.269Z,1.63
2024-04-26T12:46:01.053Z,2.00
2024-04-26T12:47:01.620Z,1.37
2024-04-26T12:48:01.310Z,0.33
2024-04-26T12:49:01.508Z,1.03
2024-04-26T12:50:01.379Z,2.20
2024-04-26T12:51:01.451Z,1.43
2024-04-26T12:52:01.407Z,1.70
2024-04-26T12:53:01.079Z,1.80
2024-04-26T12:54:01.178Z,1.73
2024-04-26T12:55:01.638Z,0.80
2024-04-26T12:56:01.504Z,1.87
2024-04-26T12:57:01.872Z,1.50
2024-04-26T12:58:01.040Z,0.23
2024-04-26T12:59:01.343Z,0.60
2024-04-26T13:00:01.999Z,1.97
2024-04-26T13:01:01.162Z,1.43
2024-04-26T13:02:01.434Z,1.77
2024-04-26T13:03:01.767Z,0.57
2024-04-26T13:04:01.546Z,1.20
2024-04-26T13:05:01.159Z,1.33
2024-04-26T13:06:01.752Z,1.13
2024-04-26T13:07:01.458Z,1.43
2024-04-26T13:08:01.018Z,1.17
2024-04-26T13:09:01.109Z,1.77
2024-04-26T13:10:01.798Z,0.80
2024-04-26T13:11:01.142Z,0.03
2024-04-26T13:12:01.257Z,1.53
2024-04-26T13:13:01.055Z,1.17
2024-04-26T13:14:01.083Z,0.40
2024-04-26T13:15:01.548Z,0.77
2024-04-26T13:16:01.456Z,1.77
2024-04-26T13:17:01.388Z,0.37
2024-04-26T13:18:01.574Z,1.47